KOSU/OSU METAR and TAF weather

Enter ICAO airport designator
Station Type Date Time Source
KOSU METAR 2021/09/16 20:53 UTC NOAA

KOSU 162053Z 00000KT 10SM FEW042 28/17 A3008 RMK AO2 SLP180 T02830167 56015 $


Station Type Date Time Source
KOSU Decoded METAR 2021/09/16 20:53 UTC NOAA

OHIO STATE UNIVERSITY AIRPORT , OH, United States (KOSU) 40-05N 083-05W 280M
Sep 16, 2021 - 04:53 PM EDT / 2021.09.16 2053 UTC
Wind: Calm:0
Visibility: 10 mile(s):0
Sky conditions: mostly clear
Temperature: 82.9 F (28.3 C)
Dew Point: 62.1 F (16.7 C)
Relative Humidity: 49%
Pressure (altimeter): 30.08 in. Hg (1018 hPa)
Pressure tendency: 0.04 inches (1.5 hPa) lower than three hours ago
ob: KOSU 162053Z 00000KT 10SM FEW042 28/17 A3008 RMK AO2 SLP180 T02830167 56015
cycle: 21

Station Type Date Time Source
KOSU TAF UTC NOAA

Error!

Example: see airport list